Time;durP1;ratioP1;P1;durP2;ratioP2;P2;SDS_P1;SDS_P2;PMS_P1;PMS_P2;Temp;Humidity;BMP_temperature;BMP_pressure;BME280_temperature;BME280_humidity;BME280_pressure;Samples;Min_cycle;Max_cycle;Signal;HPM_P1;HPM_P2
2022/12/21 00:04:55;;;;;;;22.10;16.08;;;8.80;99.90;;;;;;12584055;28;20213;-86
2022/12/21 00:11:00;;;;;;;21.48;15.48;;;8.80;99.90;;;;;;12580827;28;20051;-86
2022/12/21 00:17:01;;;;;;;23.75;17.10;;;8.80;99.90;;;;;;12559340;28;20040;-86
2022/12/21 00:23:03;;;;;;;27.05;17.25;;;8.80;99.90;;;;;;12581144;28;20502;-86
2022/12/21 00:29:06;;;;;;;27.00;17.85;;;8.80;99.90;;;;;;12545286;28;20067;-86
2022/12/21 00:35:08;;;;;;;27.65;18.45;;;8.80;99.90;;;;;;12583988;28;20390;-86
2022/12/21 00:41:15;;;;;;;28.30;18.35;;;8.80;99.90;;;;;;12567212;28;20503;-86
2022/12/21 00:47:16;;;;;;;27.15;18.00;;;8.80;99.90;;;;;;12579888;28;20055;-85
2022/12/21 00:53:19;;;;;;;28.55;18.45;;;8.80;99.90;;;;;;12566678;28;20041;-86
2022/12/21 00:59:20;;;;;;;29.88;19.02;;;8.80;99.90;;;;;;12564220;28;20622;-85
2022/12/21 01:05:23;;;;;;;33.03;19.63;;;8.80;99.90;;;;;;12566997;28;20056;-86
2022/12/21 01:11:24;;;;;;;36.58;21.40;;;8.80;99.90;;;;;;12572980;28;20048;-86
2022/12/21 01:17:26;;;;;;;33.03;18.98;;;8.80;99.90;;;;;;12562602;28;20135;-85
2022/12/21 01:23:29;;;;;;;33.38;19.70;;;8.80;99.90;;;;;;12563956;28;20045;-86
2022/12/21 01:29:30;;;;;;;37.47;20.17;;;8.80;99.90;;;;;;12560616;28;20075;-86
2022/12/21 01:35:32;;;;;;;37.05;20.63;;;8.80;99.90;;;;;;12596471;28;20066;-86
2022/12/21 01:41:34;;;;;;;41.58;20.27;;;8.80;99.90;;;;;;12593561;28;20037;-86
2022/12/21 01:47:48;;;;;;;40.47;20.52;;;8.80;99.90;;;;;;12593459;28;20127;-86
2022/12/21 01:53:55;;;;;;;54.63;23.10;;;8.80;99.90;;;;;;12589890;28;20048;-86
2022/12/21 01:59:59;;;;;;;52.40;21.95;;;8.70;99.90;;;;;;12579497;28;20049;-86
2022/12/21 02:06:03;;;;;;;58.13;22.08;;;8.70;99.90;;;;;;12596166;28;20064;-86
2022/12/21 02:12:08;;;;;;;51.80;23.03;;;8.70;99.90;;;;;;12585279;28;20493;-86
2022/12/21 02:18:49;;;;;;;53.83;22.90;;;8.70;99.90;;;;;;12583572;28;20552;-86
2022/12/21 02:25:29;;;;;;;55.00;22.63;;;8.70;99.90;;;;;;12541224;28;21861;-86
2022/12/21 02:31:49;;;;;;;63.40;23.15;;;8.70;99.90;;;;;;12583804;28;20071;-86
2022/12/21 02:38:01;;;;;;;62.28;23.77;;;8.70;99.90;;;;;;12602907;28;20087;-86
2022/12/21 02:44:37;;;;;;;47.22;20.48;;;8.70;99.90;;;;;;12582599;28;20089;-86
2022/12/21 02:50:44;;;;;;;59.33;22.65;;;8.60;99.90;;;;;;12587113;28;20492;-86
2022/12/21 02:56:45;;;;;;;56.55;22.90;;;8.50;99.90;;;;;;12568413;28;20044;-86
2022/12/21 03:03:47;;;;;;;55.35;21.33;;;8.60;99.90;;;;;;12588311;28;20055;-86
2022/12/21 03:09:41;;;;;;;52.25;21.08;;;8.60;99.90;;;;;;12583341;28;20465;-86
2022/12/21 03:15:52;;;;;;;65.13;24.38;;;8.70;99.90;;;;;;12586096;28;20041;-87
2022/12/21 03:22:01;;;;;;;67.15;24.02;;;8.60;99.90;;;;;;12571749;28;20535;-86
2022/12/21 03:28:12;;;;;;;76.82;24.42;;;8.60;99.90;;;;;;12595138;28;20048;-86
2022/12/21 03:34:32;;;;;;;80.35;25.45;;;8.50;99.90;;;;;;12584158;28;20056;-86
2022/12/21 03:40:38;;;;;;;118.07;26.85;;;8.50;99.90;;;;;;12574957;28;20047;-86
2022/12/21 03:46:50;;;;;;;137.93;28.85;;;8.50;99.90;;;;;;12576075;28;20570;-86
2022/12/21 03:53:01;;;;;;;100.63;26.27;;;8.50;99.90;;;;;;12580417;28;20537;-86
2022/12/21 03:59:06;;;;;;;129.70;27.55;;;8.40;99.90;;;;;;12570185;28;20524;-86
2022/12/21 04:05:19;;;;;;;125.07;27.17;;;8.50;99.90;;;;;;12571055;28;20040;-86
2022/12/21 04:17:44;;;;;;;96.95;25.30;;;8.40;99.90;;;;;;12582112;28;20041;-86
2022/12/21 04:30:07;;;;;;;69.32;22.80;;;8.30;99.90;;;;;;12576459;28;20087;-86
2022/12/21 04:42:29;;;;;;;64.63;20.30;;;8.40;99.90;;;;;;12572429;28;20056;-86
2022/12/21 04:48:31;;;;;;;64.20;20.67;;;8.40;99.90;;;;;;12565095;28;20056;-86
2022/12/21 04:54:32;;;;;;;50.08;19.05;;;8.40;99.90;;;;;;12544484;28;20097;-86
2022/12/21 05:00:34;;;;;;;62.92;20.52;;;8.40;99.90;;;;;;12596994;28;20408;-87
2022/12/21 05:06:36;;;;;;;52.58;19.13;;;8.40;99.90;;;;;;12564657;28;20496;-86
2022/12/21 05:12:38;;;;;;;50.95;18.25;;;8.30;99.90;;;;;;12589282;28;20164;-86
2022/12/21 05:18:40;;;;;;;46.17;16.90;;;8.30;99.90;;;;;;12586917;28;20051;-86
2022/12/21 05:24:45;;;;;;;52.65;17.38;;;8.40;99.90;;;;;;12584561;28;20040;-86
2022/12/21 05:30:46;;;;;;;59.67;18.38;;;8.40;99.90;;;;;;12589511;28;20109;-86
2022/12/21 05:36:48;;;;;;;50.33;17.77;;;8.30;99.90;;;;;;12572533;28;20048;-86
2022/12/21 05:42:50;;;;;;;67.95;19.08;;;8.30;99.90;;;;;;12583804;28;20045;-86
2022/12/21 05:48:54;;;;;;;97.45;21.05;;;8.30;99.90;;;;;;12586459;28;20525;-86
2022/12/21 05:54:56;;;;;;;86.70;20.40;;;8.20;99.90;;;;;;12584929;28;20045;-86
2022/12/21 06:01:02;;;;;;;77.15;19.85;;;8.20;99.90;;;;;;12562749;28;20048;-86
2022/12/21 06:07:04;;;;;;;63.42;18.80;;;8.20;99.90;;;;;;12592870;28;20084;-86
2022/12/21 06:13:06;;;;;;;49.13;15.32;;;8.30;99.90;;;;;;12577767;28;20032;-86
2022/12/21 06:19:08;;;;;;;51.80;16.13;;;8.30;99.90;;;;;;12585413;28;20110;-86
2022/12/21 06:25:09;;;;;;;51.45;15.90;;;8.30;99.90;;;;;;12594433;28;20044;-86
2022/12/21 06:31:12;;;;;;;68.43;18.02;;;8.20;99.90;;;;;;12589875;28;20044;-86
2022/12/21 06:37:14;;;;;;;64.20;16.92;;;8.20;99.90;;;;;;12584382;28;20048;-86
2022/12/21 06:43:16;;;;;;;54.03;16.92;;;8.20;99.90;;;;;;12592471;28;20056;-86
2022/12/21 06:49:18;;;;;;;52.83;16.67;;;8.20;99.90;;;;;;12593193;28;20049;-86
2022/12/21 06:55:20;;;;;;;52.90;17.38;;;8.20;99.90;;;;;;12556846;28;20041;-86
2022/12/21 07:01:21;;;;;;;62.28;16.63;;;8.20;99.90;;;;;;12572254;28;20036;-85
2022/12/21 07:07:24;;;;;;;84.53;19.17;;;8.10;99.90;;;;;;12573737;28;20087;-86
2022/12/21 07:13:26;;;;;;;65.18;17.40;;;8.20;99.90;;;;;;12595594;28;20112;-86
2022/12/21 07:19:29;;;;;;;66.03;17.05;;;8.10;99.90;;;;;;12598163;28;20183;-85
2022/12/21 07:25:31;;;;;;;65.85;18.10;;;8.10;99.90;;;;;;12596242;28;20051;-86
2022/12/21 07:31:33;;;;;;;73.60;19.00;;;8.10;99.90;;;;;;12609414;28;20052;-86
2022/12/21 07:37:35;;;;;;;68.97;17.80;;;8.10;99.90;;;;;;12612160;28;20067;-86
2022/12/21 07:43:37;;;;;;;68.65;17.63;;;8.10;99.90;;;;;;12639041;28;20044;-87
2022/12/21 07:49:39;;;;;;;76.93;17.65;;;8.10;99.90;;;;;;12635308;28;20040;-87
2022/12/21 07:55:41;;;;;;;59.47;15.98;;;8.00;99.90;;;;;;12626597;28;20051;-88
2022/12/21 08:01:43;;;;;;;59.47;16.50;;;8.00;99.90;;;;;;12637353;28;20055;-87
2022/12/21 08:07:47;;;;;;;82.38;17.33;;;8.00;99.90;;;;;;12637909;28;20105;-87
2022/12/21 08:13:49;;;;;;;50.20;15.48;;;8.10;99.90;;;;;;12638639;28;20051;-87
2022/12/21 08:19:50;;;;;;;46.15;15.10;;;8.10;99.90;;;;;;12630048;28;20071;-88
2022/12/21 08:25:52;;;;;;;35.47;12.15;;;8.10;99.90;;;;;;12601086;28;20040;-87
2022/12/21 08:31:54;;;;;;;28.33;11.32;;;8.00;99.90;;;;;;12581564;28;20113;-87
2022/12/21 08:37:56;;;;;;;29.40;11.60;;;7.90;99.90;;;;;;12568464;28;20055;-87
2022/12/21 08:43:57;;;;;;;22.85;10.15;;;7.90;99.90;;;;;;12594375;28;20044;-86
2022/12/21 08:49:59;;;;;;;20.38;8.70;;;7.90;99.90;;;;;;12593240;28;20503;-86
2022/12/21 08:56:01;;;;;;;26.27;9.05;;;7.80;99.90;;;;;;12580454;28;20088;-86
2022/12/21 09:02:03;;;;;;;19.17;8.85;;;7.90;99.90;;;;;;12573471;28;20083;-87
2022/12/21 09:08:05;;;;;;;28.15;9.35;;;7.90;99.90;;;;;;12573849;28;20048;-87
2022/12/21 09:14:07;;;;;;;35.78;11.38;;;8.00;99.90;;;;;;12581951;28;20082;-86
2022/12/21 09:20:09;;;;;;;24.90;9.57;;;8.00;99.90;;;;;;12572464;28;20461;-86
2022/12/21 09:26:12;;;;;;;37.58;14.63;;;8.00;99.90;;;;;;12567365;28;20139;-87
2022/12/21 09:32:13;;;;;;;34.25;13.05;;;8.00;99.90;;;;;;12567183;28;20053;-86
2022/12/21 09:38:15;;;;;;;30.30;13.05;;;8.00;99.90;;;;;;12582785;28;20485;-87
2022/12/21 09:44:44;;;;;;;33.67;13.63;;;8.00;99.90;;;;;;12567091;28;20051;-87
2022/12/21 09:51:05;;;;;;;49.53;15.32;;;8.00;99.90;;;;;;12573217;28;20055;-87
2022/12/21 09:57:11;;;;;;;32.67;13.57;;;8.10;99.90;;;;;;12589291;28;20045;-87
2022/12/21 10:03:22;;;;;;;29.38;12.35;;;8.10;99.90;;;;;;12595772;28;20044;-86
2022/12/21 10:09:33;;;;;;;31.73;13.43;;;8.10;99.90;;;;;;12604516;28;20048;-87
2022/12/21 10:16:00;;;;;;;41.08;12.90;;;8.10;99.90;;;;;;12586590;28;20093;-86
2022/12/21 10:22:32;;;;;;;30.25;12.98;;;8.10;99.90;;;;;;12573401;28;20575;-86
2022/12/21 10:28:42;;;;;;;29.08;12.13;;;8.00;99.90;;;;;;12569010;28;20052;-86
2022/12/21 10:34:47;;;;;;;24.50;11.43;;;8.10;99.90;;;;;;12578462;28;20133;-86
2022/12/21 10:40:54;;;;;;;30.60;13.40;;;8.10;99.90;;;;;;12600259;28;20040;-86
2022/12/21 10:46:56;;;;;;;26.27;13.02;;;8.10;99.90;;;;;;12577702;28;20426;-86
2022/12/21 10:53:15;;;;;;;32.00;12.90;;;8.30;99.90;;;;;;12592152;28;20044;-86
2022/12/21 10:59:24;;;;;;;31.98;13.95;;;8.20;99.90;;;;;;12586138;28;20061;-86
2022/12/21 11:05:28;;;;;;;34.22;14.02;;;8.10;99.90;;;;;;12569605;28;20045;-86
2022/12/21 11:11:33;;;;;;;33.27;14.23;;;8.10;99.90;;;;;;12591468;28;20051;-86
2022/12/21 11:17:35;;;;;;;39.67;16.13;;;8.10;99.90;;;;;;12591813;28;20295;-86
2022/12/21 11:23:37;;;;;;;38.75;15.18;;;8.10;99.90;;;;;;12566760;28;20040;-86
2022/12/21 11:29:38;;;;;;;33.88;15.93;;;8.20;99.90;;;;;;12567545;28;20072;-86
2022/12/21 11:36:06;;;;;;;32.75;15.35;;;8.10;99.90;;;;;;12582442;28;20041;-86
2022/12/21 11:42:16;;;;;;;35.15;14.75;;;8.10;99.90;;;;;;12597497;28;20413;-86
2022/12/21 11:48:35;;;;;;;29.35;12.07;;;8.00;99.90;;;;;;12582714;28;20092;-86
2022/12/21 11:54:54;;;;;;;27.33;12.18;;;8.10;99.90;;;;;;12581899;28;20041;-86
2022/12/21 12:01:28;;;;;;;23.70;11.00;;;8.10;99.90;;;;;;12593074;28;20048;-86
2022/12/21 12:08:05;;;;;;;19.13;9.45;;;8.10;99.90;;;;;;12572328;28;20048;-85
2022/12/21 12:14:16;;;;;;;15.93;9.05;;;8.00;99.90;;;;;;12567691;28;20041;-86
2022/12/21 12:20:46;;;;;;;20.23;9.40;;;8.10;99.90;;;;;;12565704;28;20059;-86
2022/12/21 12:27:13;;;;;;;14.45;8.00;;;8.10;99.90;;;;;;12576223;28;20041;-86
2022/12/21 12:33:33;;;;;;;16.20;8.20;;;8.10;99.90;;;;;;12559244;28;20040;-86
2022/12/21 12:40:14;;;;;;;16.08;8.10;;;8.20;99.90;;;;;;12555893;28;20489;-86
2022/12/21 12:46:19;;;;;;;13.88;8.02;;;8.20;99.90;;;;;;12579992;28;20070;-86
2022/12/21 12:52:37;;;;;;;16.35;8.73;;;8.30;99.90;;;;;;12577354;28;20488;-86
2022/12/21 12:59:07;;;;;;;14.98;8.30;;;8.30;99.90;;;;;;12556589;28;20443;-86
2022/12/21 13:05:34;;;;;;;20.40;9.43;;;8.30;99.90;;;;;;12564256;28;20492;-86
2022/12/21 13:12:03;;;;;;;19.30;9.93;;;8.30;99.90;;;;;;12571462;28;20040;-86
2022/12/21 13:18:14;;;;;;;17.42;10.50;;;8.30;99.90;;;;;;12579180;28;20861;-86
2022/12/21 13:24:44;;;;;;;18.48;10.40;;;8.20;99.90;;;;;;12563168;28;20045;-86
2022/12/21 13:30:49;;;;;;;16.35;9.73;;;8.10;99.90;;;;;;12569359;28;20125;-86
2022/12/21 13:36:50;;;;;;;;;;;8.10;99.90;;;;;;12581887;28;20047;-86
2022/12/21 13:43:17;;;;;;;21.17;11.95;;;8.10;99.90;;;;;;12592644;28;19924;-86
2022/12/21 13:49:31;;;;;;;24.75;12.55;;;8.10;99.90;;;;;;12567874;28;20047;-86
2022/12/21 13:55:49;;;;;;;20.70;12.10;;;8.00;99.90;;;;;;12588363;28;20036;-86
2022/12/21 14:02:20;;;;;;;26.92;12.63;;;8.00;99.90;;;;;;12588051;28;20484;-86
2022/12/21 14:08:46;;;;;;;24.67;12.38;;;7.90;99.90;;;;;;12568814;28;20178;-86
2022/12/21 14:15:15;;;;;;;23.80;12.13;;;7.80;99.90;;;;;;12588052;28;20060;-86
2022/12/21 14:21:23;;;;;;;23.90;12.45;;;7.70;99.90;;;;;;12564231;28;20044;-86
2022/12/21 14:27:25;;;;;;;22.05;11.90;;;7.70;99.90;;;;;;12585156;28;20083;-86
2022/12/21 14:33:36;;;;;;;24.77;12.20;;;7.60;99.90;;;;;;12584723;28;20048;-86
2022/12/21 14:39:37;;;;;;;31.50;12.98;;;7.60;99.90;;;;;;12597245;28;20049;-86
2022/12/21 14:45:42;;;;;;;27.35;12.40;;;7.50;99.90;;;;;;12578489;28;20130;-86
2022/12/21 14:51:50;;;;;;;27.13;12.93;;;7.40;99.90;;;;;;12574064;28;20052;-86
2022/12/21 14:57:53;;;;;;;28.00;13.45;;;7.30;99.90;;;;;;12596918;28;20053;-86
2022/12/21 15:03:59;;;;;;;32.47;14.13;;;7.30;99.90;;;;;;12579517;28;20044;-86
2022/12/21 15:10:03;;;;;;;23.65;13.10;;;7.30;99.90;;;;;;12573390;28;21007;-86
2022/12/21 15:16:28;;;;;;;30.27;13.53;;;7.30;99.90;;;;;;12563763;28;20040;-86
2022/12/21 15:22:45;;;;;;;29.52;12.48;;;7.30;99.90;;;;;;12564929;28;20043;-86
2022/12/21 15:28:48;;;;;;;27.75;12.43;;;7.30;99.90;;;;;;12579249;28;20052;-85
2022/12/21 15:34:57;;;;;;;31.60;14.20;;;7.20;99.90;;;;;;12568686;28;20041;-85
2022/12/21 15:41:02;;;;;;;36.40;15.73;;;7.20;99.90;;;;;;12562201;28;20400;-85
2022/12/21 15:47:19;;;;;;;33.47;15.20;;;7.10;99.90;;;;;;12560996;28;20239;-85
2022/12/21 15:53:24;;;;;;;32.40;15.82;;;7.00;99.90;;;;;;12581799;28;20041;-85
2022/12/21 15:59:31;;;;;;;42.55;21.95;;;7.00;99.90;;;;;;12587284;28;20401;-85
2022/12/21 16:05:33;;;;;;;36.70;18.70;;;7.00;99.90;;;;;;12580378;28;20053;-85
2022/12/21 16:11:37;;;;;;;43.05;17.33;;;7.20;99.90;;;;;;12582838;28;20056;-85
2022/12/21 16:18:08;;;;;;;38.67;17.75;;;7.20;99.90;;;;;;12585807;28;20052;-85
2022/12/21 16:24:10;;;;;;;36.00;16.65;;;7.30;99.90;;;;;;12551573;28;20047;-85
2022/12/21 16:30:12;;;;;;;32.92;16.55;;;7.30;99.90;;;;;;12560607;28;20056;-85
2022/12/21 16:36:22;;;;;;;33.38;16.13;;;7.40;99.90;;;;;;12585224;28;20056;-85
2022/12/21 16:42:26;;;;;;;35.42;15.65;;;7.30;99.90;;;;;;12584029;28;20546;-85
2022/12/21 16:48:50;;;;;;;27.42;13.50;;;7.30;99.90;;;;;;12580068;28;20052;-85
2022/12/21 16:54:52;;;;;;;30.95;13.98;;;7.20;99.90;;;;;;12568213;28;20041;-85
2022/12/21 17:00:54;;;;;;;32.38;12.20;;;7.20;99.90;;;;;;12563702;28;20051;-85
2022/12/21 17:07:07;;;;;;;22.45;11.30;;;7.10;99.90;;;;;;12549182;28;20496;-84
2022/12/21 17:13:16;;;;;;;21.13;10.80;;;7.00;99.90;;;;;;12564077;28;20048;-85
2022/12/21 17:19:20;;;;;;;25.25;10.25;;;6.90;99.90;;;;;;12585184;28;20056;-84
2022/12/21 17:25:22;;;;;;;23.25;10.57;;;6.90;99.90;;;;;;12570013;28;20083;-85
2022/12/21 17:31:24;;;;;;;19.80;10.63;;;6.90;99.90;;;;;;12584608;28;20052;-84
2022/12/21 17:37:26;;;;;;;22.15;9.75;;;6.90;99.90;;;;;;12557702;28;20041;-84
2022/12/21 17:43:28;;;;;;;24.50;10.50;;;6.90;99.90;;;;;;12579558;28;20751;-84
2022/12/21 17:49:30;;;;;;;21.23;9.75;;;6.90;99.90;;;;;;12585816;28;20045;-84
2022/12/21 17:55:32;;;;;;;22.00;9.98;;;6.80;99.90;;;;;;12580468;28;20048;-84
2022/12/21 18:01:34;;;;;;;19.00;9.13;;;6.70;99.90;;;;;;12551823;28;20041;-85
2022/12/21 18:07:36;;;;;;;19.30;9.70;;;6.50;99.90;;;;;;12573405;28;20052;-84
2022/12/21 18:13:38;;;;;;;17.90;9.38;;;6.50;99.90;;;;;;12585805;28;20040;-85
2022/12/21 18:19:41;;;;;;;25.90;10.80;;;6.50;99.90;;;;;;12571766;28;20045;-84
2022/12/21 18:25:44;;;;;;;18.65;9.27;;;6.50;99.90;;;;;;12591711;28;20040;-84
2022/12/21 18:31:47;;;;;;;21.63;9.98;;;6.50;99.90;;;;;;12573933;28;20098;-84
2022/12/21 18:37:49;;;;;;;18.25;9.60;;;6.60;99.90;;;;;;12578130;28;20047;-84
2022/12/21 18:43:51;;;;;;;21.95;9.90;;;6.70;99.90;;;;;;12572023;28;20068;-84
2022/12/21 18:49:53;;;;;;;17.77;8.60;;;6.70;99.90;;;;;;12568967;28;20134;-84
2022/12/21 18:55:55;;;;;;;20.58;8.65;;;6.80;99.90;;;;;;12579355;28;20044;-84
2022/12/21 19:01:58;;;;;;;18.42;8.27;;;6.90;99.90;;;;;;12566905;28;20045;-84
2022/12/21 19:08:00;;;;;;;14.05;6.43;;;6.80;99.90;;;;;;12586900;28;20068;-84
2022/12/21 19:14:02;;;;;;;16.45;7.32;;;6.90;99.90;;;;;;12587153;28;20170;-84
2022/12/21 19:20:05;;;;;;;12.35;6.50;;;6.90;99.90;;;;;;12582125;28;20052;-84
2022/12/21 19:26:08;;;;;;;12.07;5.68;;;6.90;99.90;;;;;;12582674;28;20068;-84
2022/12/21 19:32:10;;;;;;;10.53;5.50;;;6.90;99.90;;;;;;12585222;28;20052;-84
2022/12/21 19:38:25;;;;;;;10.48;5.35;;;6.90;99.90;;;;;;12587093;28;20136;-84
2022/12/21 19:44:33;;;;;;;11.02;4.78;;;6.90;99.90;;;;;;12586056;28;20048;-85
2022/12/21 19:50:34;;;;;;;8.95;4.38;;;7.10;99.90;;;;;;12575013;28;20052;-85
2022/12/21 19:56:36;;;;;;;6.32;3.80;;;7.20;99.90;;;;;;12593270;28;20053;-85
2022/12/21 20:02:42;;;;;;;9.93;4.15;;;7.10;99.90;;;;;;12583727;28;20393;-84
2022/12/21 20:08:44;;;;;;;8.35;3.72;;;7.10;99.90;;;;;;12572040;28;20071;-85
2022/12/21 20:14:52;;;;;;;8.23;4.70;;;7.10;99.90;;;;;;12575820;28;20040;-85
2022/12/21 20:20:54;;;;;;;11.45;4.53;;;7.10;99.90;;;;;;12580951;28;20037;-85
2022/12/21 20:26:58;;;;;;;13.35;4.88;;;7.10;99.90;;;;;;12573778;28;20060;-85
2022/12/21 20:33:04;;;;;;;;;;;7.00;99.90;;;;;;12584585;28;20485;-85
2022/12/21 20:39:15;;;;;;;10.48;5.03;;;7.00;99.90;;;;;;12588982;28;19927;-85
2022/12/21 20:45:22;;;;;;;11.05;4.78;;;6.90;99.90;;;;;;12565577;28;20102;-85
2022/12/21 20:51:25;;;;;;;13.00;5.30;;;6.90;99.90;;;;;;12578811;28;20412;-85
2022/12/21 20:57:27;;;;;;;17.13;5.03;;;6.90;99.90;;;;;;12579443;28;20064;-85
2022/12/21 21:03:30;;;;;;;14.68;6.15;;;7.00;99.90;;;;;;12583264;28;20047;-85
2022/12/21 21:09:33;;;;;;;7.88;4.43;;;7.00;99.90;;;;;;12572470;28;20131;-85
2022/12/21 21:15:36;;;;;;;11.93;5.38;;;7.00;99.90;;;;;;12569992;28;20131;-85
2022/12/21 21:28:12;;;;;;;9.95;5.13;;;6.90;99.90;;;;;;12584812;28;20079;-85
2022/12/21 21:34:14;;;;;;;8.10;4.63;;;6.90;99.90;;;;;;12587321;28;20162;-86
2022/12/21 21:46:36;;;;;;;8.38;4.85;;;6.80;99.90;;;;;;12587472;28;20619;-85
2022/12/21 21:52:39;;;;;;;7.32;4.35;;;6.80;99.90;;;;;;12594065;28;20072;-85
2022/12/21 21:58:41;;;;;;;9.07;4.20;;;6.90;99.90;;;;;;12597721;28;20055;-85
2022/12/21 22:04:46;;;;;;;8.80;3.75;;;6.90;99.90;;;;;;12591228;28;20045;-85
2022/12/21 22:10:48;;;;;;;8.18;3.63;;;6.90;99.90;;;;;;12590519;28;20052;-85
2022/12/21 22:16:52;;;;;;;5.82;3.67;;;6.90;99.90;;;;;;12584051;28;20114;-85
2022/12/21 22:42:26;;;;;;;6.43;3.58;;;7.00;99.90;;;;;;12592274;28;20041;-85
2022/12/21 22:48:28;;;;;;;9.68;3.72;;;7.00;99.90;;;;;;12588494;28;20093;-85
2022/12/21 22:54:30;;;;;;;9.02;4.28;;;7.00;99.90;;;;;;12593045;28;20178;-85
2022/12/21 23:00:32;;;;;;;8.07;4.55;;;7.00;99.90;;;;;;12593587;28;20040;-85
2022/12/21 23:06:34;;;;;;;8.07;4.47;;;7.00;99.90;;;;;;12583921;28;20085;-85
2022/12/21 23:18:56;;;;;;;6.18;4.75;;;7.10;99.90;;;;;;12583734;28;20045;-85
2022/12/21 23:44:05;;;;;;;8.07;5.22;;;7.20;99.90;;;;;;12580055;28;20066;-85
